METAR Data
IDs: Format: Raw Decoded Include TAF

Data at: 0716 UTC 03 Aug 2021

KSDB 030653Z AUTO 32011KT 10SM CLR 26/M02 A3023 RMK AO2 SLP164 T02561017
KSDB 030553Z AUTO 32011KT 10SM CLR 26/M01 A3023 RMK AO2 SLP166 T02561006 10339 20250 50002
KSDB 030453Z AUTO 32011KT 10SM CLR 26/01 A3024 RMK AO2 SLP172 T02560006
KSDB 030353Z AUTO 32012KT 10SM CLR 26/01 A3023 RMK AO2 SLP172 T02560006
KSDB 030253Z AUTO 31009KT 10SM CLR 27/M01 A3022 RMK AO2 SLP169 T02721011 53002
KSDB 030153Z AUTO 20009KT 10SM CLR 31/M03 A3022 RMK AO2 SLP165 T03061028
KSDB 030053Z AUTO 18008G16KT 10SM CLR 33/M03 A3022 RMK AO2 SLP164 T03281033
KSDB 022353Z AUTO 14014G18KT 10SM CLR 33/M03 A3021 RMK AO2 SLP161 T03331033 10356 20317 56010
KSDB 022253Z AUTO 16012G17KT 10SM CLR 34/M03 A3022 RMK AO2 SLP163 T03441028
KSDB 022153Z AUTO 17010G19KT 10SM CLR 34/M03 A3024 RMK AO2 SLP166 T03441028
KSDB 022053Z AUTO 14010G21KT 110V190 10SM CLR 35/M03 A3025 RMK AO2 SLP171 T03501033 58009
KSDB 021953Z AUTO 15012G20KT 10SM CLR 34/M03 A3026 RMK AO2 SLP178 T03391028
KSDB 021853Z AUTO 16015G20KT 10SM CLR 33/M02 A3027 RMK AO2 SLP182 T03281017
KSDB 021753Z AUTO 16011G17KT 10SM CLR 32/M02 A3028 RMK AO2 SLP186 T03171022 10317 20228 58003
KSDB 021653Z AUTO 20008KT 10SM CLR 30/M01 A3029 RMK AO2 SLP188 T03001006
KSDB 021553Z AUTO 17004KT 10SM CLR 28/M01 A3029 RMK AO2 SLP190 T02781006
KSDB 021453Z AUTO 19005KT 10SM CLR 26/M01 A3029 RMK AO2 SLP192 T02611006 51013
KSDB 021353Z AUTO 20003KT 10SM CLR 24/M03 A3028 RMK AO2 SLP188 T02441033
KSDB 021253Z AUTO 24005KT 10SM CLR 24/00 A3026 RMK AO2 SLP181 T02390000
KSDB 021153Z AUTO 25007KT 10SM CLR 24/01 A3024 RMK AO2 SLP173 T02390011 10256 20233 55002
KSDB 021053Z AUTO 27011KT 10SM CLR 24/01 A3024 RMK AO2 SLP171 T02440006
KSDB 020953Z AUTO 29007KT 10SM CLR 25/01 A3025 RMK AO2 SLP172 T02500011
KSDB 020853Z AUTO 30010KT 10SM CLR 24/02 A3025 RMK AO2 SLP174 T02440017 58005
KSDB 020753Z AUTO 30010KT 10SM CLR 24/04 A3026 RMK AO2 SLP178 T02390039 403440222
KSDB 020653Z AUTO 28007KT 10SM CLR 24/03 A3026 RMK AO2 SLP180 T02440028
KSDB 020553Z AUTO 29005KT 10SM CLR 25/04 A3027 RMK AO2 SLP182 T02500044 10322 20250 51008
KSDB 020453Z AUTO 28010KT 10SM CLR 26/04 A3026 RMK AO2 SLP180 T02610044
KSDB 020353Z AUTO 31010KT 10SM CLR 27/05 A3025 RMK AO2 SLP176 T02720050
KSDB 020253Z AUTO 18006KT 10SM CLR 27/01 A3024 RMK AO2 SLP176 T02720006 53006
KSDB 020153Z AUTO 16008G14KT 130V200 10SM CLR 29/01 A3023 RMK AO2 SLP171 T02940006
KSDB 020053Z AUTO 15016G25KT 10SM CLR 31/01 A3022 RMK AO2 SLP168 T03060011
KSDB 012353Z AUTO 17014G23KT 10SM CLR 32/01 A3022 RMK AO2 PK WND 14027/2258 SLP167 T03220011 10344 20311 58007
KSDB 012253Z AUTO 14015G23KT 10SM CLR 33/01 A3023 RMK AO2 PK WND 15026/2159 SLP170 T03280011
KSDB 012153Z AUTO 15014G27KT 10SM CLR 33/02 A3024 RMK AO2 PK WND 16027/2149 SLP172 T03280017
KSDB 012053Z AUTO 16013G23KT 10SM CLR 33/02 A3025 RMK AO2 PK WND 15026/2032 SLP172 T03330022 58009
KSDB 011953Z AUTO 17012G22KT 10SM CLR 33/M01 A3026 RMK AO2 SLP176 T03281006